Latest Weather Observations for Warrnambool

IDV60801

Issued at 4:35 pm EST Thursday 2 October 2014 (issued every 30 minutes, with the page automatically refreshed every 10 minutes)

About weather observations | Map of weather stations | Latest weather observations for VIC | Other Formats
Station Details ID: 090186 Name: WARRNAMBOOL AIRPORT NDB Lat: -38.29 Lon: 142.45 Height: 70.8 m
Data from the previous 72 hours. | See also: Recent months at Warrnambool
Date/Time
EST
Temp
°C
App
Temp
°C
Dew
Point
Rel
Hum
%
Delta-T
°C
Wind Press
QNH
hPa
Press
MSL
hPa
Rain
since 9 am
mm
Dir
 
Spd
km/h
Gust
km/h
Spd
kts
Gust
kts
02/04:30pm 13.7 9.4 10.9 83 1.5 SW 24 30 13 16 1024.3 1024.4 0.0
02/04:00pm 12.9 7.9 11.0 88 1.0 WSW 28 37 15 20 1024.4 1024.5 0.0
02/03:30pm 13.4 8.6 11.8 90 0.9 SW 28 35 15 19 1024.3 1024.4 0.0
02/03:00pm 12.4 6.4 10.8 90 0.8 SW 33 46 18 25 1024.5 1024.6 0.0
02/02:30pm 13.1 7.2 10.6 85 1.3 WSW 32 43 17 23 1024.5 1024.6 0.0
02/02:00pm 13.9 8.9 11.1 83 1.5 WSW 28 43 15 23 1024.7 1024.8 0.0
02/01:30pm 13.6 9.2 11.7 88 1.0 WSW 26 32 14 17 1024.9 1025.0 0.0
02/01:00pm 13.7 7.4 10.9 83 1.5 WSW 35 43 19 23 1025.1 1025.2 0.0
02/12:30pm 14.1 9.3 11.8 86 1.2 WSW 28 37 15 20 1025.3 1025.4 0.0
02/12:00pm 13.7 8.2 10.5 81 1.7 WSW 30 37 16 20 1025.4 1025.5 0.0
02/11:30am 13.5 7.8 9.7 78 2.0 WSW 30 37 16 20 1025.5 1025.6 0.0
02/11:00am 13.3 8.7 11.2 87 1.1 WSW 26 39 14 21 1025.6 1025.7 0.0
02/10:30am 12.8 7.9 10.0 83 1.4 WSW 26 35 14 19 1025.6 1025.7 0.0
02/10:00am 12.6 6.8 9.4 81 1.6 W 30 39 16 21 1025.5 1025.6 0.0
02/09:30am 12.7 8.9 11.1 90 0.8 W 22 33 12 18 1025.4 1025.5 0.0
02/09:00am 11.9 8.7 11.4 97 0.3 W 19 28 10 15 1025.3 1025.4 0.4
02/08:30am 11.1 8.2 10.9 99 0.1 WNW 17 24 9 13 1025.2 1025.3 -
02/08:00am 10.8 7.8 10.6 99 0.1 WNW 17 22 9 12 1025.1 1025.2 -
02/07:30am 10.6 8.3 10.4 99 0.1 WNW 13 19 7 10 1024.8 1024.9 -
02/07:00am 10.3 7.5 10.1 99 0.1 WNW 15 19 8 10 1024.6 1024.7 -
02/06:30am 9.9 7.4 9.8 99 0.1 WNW 13 19 7 10 1024.3 1024.4 -
02/06:00am 9.6 7.0 9.5 99 0.0 WNW 13 17 7 9 1024.1 1024.2 -
02/05:30am 9.5 6.2 9.4 99 0.0 NW 17 20 9 11 1023.9 1024.0 -
02/05:00am 9.6 6.3 9.5 99 0.0 WNW 17 20 9 11 1023.9 1024.0 -
02/04:30am 9.6 6.3 9.5 99 0.0 WNW 17 20 9 11 1023.9 1024.0 -
02/04:00am 9.3 6.7 9.2 99 0.0 WNW 13 20 7 11 1023.8 1023.9 -
02/03:30am 9.5 6.2 9.4 99 0.0 WNW 17 22 9 12 1023.9 1024.0 -
02/03:00am 9.1 5.2 8.8 98 0.1 WNW 19 22 10 12 1024.2 1024.3 0.2
02/02:30am 9.0 5.4 8.5 97 0.2 WNW 17 20 9 11 1024.5 1024.6 -
02/02:00am 8.9 5.6 8.1 95 0.4 WNW 15 20 8 11 1024.6 1024.7 -
02/01:30am 9.1 6.2 8.0 93 0.5 WNW 13 20 7 11 1025.0 1025.1 -
02/01:00am 8.8 4.9 7.3 90 0.7 NW 17 20 9 11 1025.0 1025.1 -
02/12:30am 9.1 4.7 7.5 90 0.8 NW 20 24 11 13 1025.1 1025.2 -
02/12:00am 8.8 5.6 6.8 87 0.9 NW 13 19 7 10 1025.4 1025.5 -
 
Date/Time
EST
Temp
°C
App
Temp
°C
Dew
Point
Rel
Hum
%
Delta-T
°C
Wind Press
QNH
hPa
Press
MSL
hPa
Rain
since 9 am
mm
Dir
 
Spd
km/h
Gust
km/h
Spd
kts
Gust
kts
01/11:30pm 9.4 6.3 7.2 86 1.0 WNW 13 20 7 11 1025.7 1025.8 -
01/11:00pm 9.1 5.4 6.5 84 1.2 NW 15 22 8 12 1025.6 1025.7 -
01/10:30pm 9.9 7.2 7.2 83 1.3 WNW 11 17 6 9 1025.7 1025.8 -
01/10:00pm 10.0 7.2 7.1 82 1.4 NW 11 15 6 8 1025.8 1025.9 -
01/09:30pm 10.5 7.8 7.4 81 1.5 WNW 11 17 6 9 1026.0 1026.1 -
01/09:00pm 10.6 7.2 7.5 81 1.5 W 15 20 8 11 1026.2 1026.3 0.0
01/08:30pm 10.5 7.9 7.6 82 1.4 WNW 11 15 6 8 1026.0 1026.1 -
01/08:00pm 10.6 8.0 7.8 83 1.3 WNW 11 19 6 10 1025.9 1026.0 -
01/07:30pm 10.7 7.3 7.6 81 1.5 W 15 20 8 11 1025.7 1025.8 -
01/07:00pm 10.8 7.4 7.5 80 1.6 W 15 20 8 11 1025.7 1025.8 -
01/06:30pm 10.9 6.6 7.0 77 1.8 W 19 26 10 14 1025.6 1025.7 -
01/06:00pm 11.1 6.7 6.6 74 2.1 W 19 24 10 13 1025.6 1025.7 -
01/05:30pm 11.8 6.8 6.3 69 2.6 WSW 22 32 12 17 1025.4 1025.5 -
01/05:00pm 12.3 6.1 6.1 66 2.9 WSW 28 39 15 21 1025.3 1025.4 -
01/04:30pm 12.9 6.8 6.7 66 3.0 WSW 28 37 15 20 1025.2 1025.3 -
01/04:00pm 12.0 6.0 7.1 72 2.3 W 28 33 15 18 1025.1 1025.2 -
01/03:30pm 12.0 6.0 6.9 71 2.4 WSW 28 37 15 20 1025.1 1025.2 -
01/03:00pm 12.6 6.3 5.8 63 3.2 WSW 28 35 15 19 1025.0 1025.1 0.0
01/02:30pm 12.8 7.0 6.2 64 3.1 WSW 26 33 14 18 1025.1 1025.2 -
01/02:00pm 13.0 6.4 6.1 63 3.3 SW 30 37 16 20 1025.3 1025.4 -
01/01:30pm 13.5 6.5 6.1 61 3.5 SW 32 44 17 24 1025.4 1025.5 -
01/01:00pm 13.0 6.3 5.7 61 3.4 SW 30 39 16 21 1025.2 1025.3 -
01/12:30pm 12.9 5.8 6.3 64 3.1 WSW 33 41 18 22 1025.2 1025.3 -
01/12:00pm 12.8 5.7 6.2 64 3.1 SW 33 43 18 23 1025.3 1025.4 -
01/11:30am 13.3 6.5 7.1 66 3.0 WSW 32 39 17 21 1025.1 1025.2 0.0
01/11:00am 11.9 5.8 6.4 69 2.6 SW 28 35 15 19 1025.2 1025.3 0.0
01/10:30am 12.7 6.1 6.1 64 3.1 SW 30 43 16 23 1025.2 1025.3 0.0
01/10:00am 12.0 4.8 5.9 66 2.8 SW 33 43 18 23 1024.9 1025.0 0.0
01/09:30am 11.6 4.5 5.7 67 2.7 WSW 32 41 17 22 1024.7 1024.8 0.0
01/09:07am 10.9 4.7 6.1 72 2.2 WSW 28 46 15 25 1024.2 1024.3 0.0
01/09:00am 11.8 7.3 6.9 72 2.3 WSW 20 28 11 15 1024.0 1024.1 8.4
01/08:30am 10.2 3.2 5.8 74 2.0 WSW 32 41 17 22 1023.6 1023.7 8.4
01/08:00am 10.4 4.5 5.6 72 2.2 WSW 26 37 14 20 1023.1 1023.2 8.4
01/07:30am 10.1 4.7 4.7 69 2.4 WSW 22 37 12 20 1022.6 1022.7 8.4
01/07:00am 8.3 3.9 4.9 79 1.5 WSW 17 26 9 14 1022.1 1022.2 8.4
01/06:30am 8.1 4.1 4.9 80 1.4 W 15 20 8 11 1021.6 1021.7 8.4
01/06:00am 7.8 2.7 4.0 77 1.6 WSW 20 24 11 13 1021.1 1021.2 8.4
01/05:30am 7.6 2.4 3.6 76 1.7 SW 20 30 11 16 1020.5 1020.6 8.4
01/05:00am 8.1 2.2 3.8 74 1.9 WSW 24 33 13 18 1020.0 1020.1 8.4
01/04:30am 7.8 1.9 3.7 75 1.8 WSW 24 32 13 17 1019.8 1019.9 8.4
01/04:00am 7.8 2.0 4.2 78 1.6 WSW 24 32 13 17 1019.4 1019.4 8.4
01/03:30am 8.1 1.9 4.5 78 1.6 WSW 26 33 14 18 1019.3 1019.3 8.4
01/03:00am 8.1 2.5 5.4 83 1.2 WSW 24 35 13 19 1019.2 1019.2 8.2
01/02:30am 7.2 -0.1 4.3 82 1.3 SW 32 54 17 29 1019.0 1019.0 8.2
01/02:23am 8.2 1.6 4.4 77 1.7 WSW 28 50 15 27 1019.0 1019.0 7.8
01/02:00am 8.5 1.9 4.3 75 1.8 WSW 28 44 15 24 1018.5 1018.5 7.8
01/01:43am 9.0 2.4 4.0 71 2.2 WSW 28 54 15 29 1018.5 1018.5 7.8
01/01:30am 7.9 0.6 2.6 69 2.2 WSW 30 43 16 23 1018.3 1018.3 7.8
01/01:00am 8.1 1.4 3.9 75 1.8 W 28 37 15 20 1018.0 1018.0 7.8
01/12:30am 7.5 0.8 3.6 76 1.7 W 28 35 15 19 1017.6 1017.6 7.8
01/12:00am 8.0 1.5 4.8 80 1.4 W 28 37 15 20 1017.4 1017.4 7.8
 
Date/Time
EST
Temp
°C
App
Temp
°C
Dew
Point
Rel
Hum
%
Delta-T
°C
Wind Press
QNH
hPa
Press
MSL
hPa
Rain
since 9 am
mm
Dir
 
Spd
km/h
Gust
km/h
Spd
kts
Gust
kts
30/11:30pm 7.9 1.7 4.3 78 1.6 W 26 33 14 18 1016.9 1016.9 7.8
30/11:08pm 7.8 0.6 5.1 83 1.2 W 32 59 17 32 1016.6 1016.6 7.6
30/11:00pm 7.2 0.2 4.2 81 1.3 WSW 30 41 16 22 1016.4 1016.4 7.6
30/10:47pm 7.4 -0.6 4.0 79 1.5 W 35 56 19 30 1016.7 1016.7 7.4
30/10:30pm 7.4 0.7 3.6 77 1.6 W 28 33 15 18 1016.0 1016.0 7.2
30/10:00pm 8.2 0.3 4.2 76 1.7 W 35 46 19 25 1015.7 1015.7 7.2
30/09:32pm 7.7 1.2 4.8 82 1.3 W 28 54 15 29 1015.2 1015.2 7.2
30/09:30pm 7.9 1.9 5.4 84 1.1 W 26 54 14 29 1015.4 1015.4 7.2
30/09:00pm 7.9 1.6 5.5 85 1.1 W 28 39 15 21 1014.7 1014.7 7.0
30/08:30pm 7.5 1.1 5.0 84 1.1 WSW 28 50 15 27 1014.6 1014.6 7.0
30/08:00pm 7.2 2.6 3.6 78 1.5 WNW 17 26 9 14 1013.5 1013.5 6.4
30/07:30pm 7.4 1.4 3.5 76 1.7 W 24 35 13 19 1013.0 1013.0 6.4
30/07:00pm 8.4 0.8 3.7 72 2.0 WNW 33 50 18 27 1012.4 1012.5 6.4
30/06:46pm 9.8 2.3 4.2 68 2.5 W 33 56 18 30 1012.0 1012.1 6.4
30/06:30pm 9.2 2.1 3.8 69 2.4 W 30 39 16 21 1011.7 1011.8 6.4
30/06:00pm 9.2 1.8 4.2 71 2.2 W 32 46 17 25 1011.4 1011.5 6.4
30/05:54pm 10.1 2.2 4.3 67 2.6 W 35 54 19 29 1011.4 1011.5 6.2
30/05:30pm 10.9 1.0 4.8 66 2.8 W 46 59 25 32 1010.9 1011.0 6.2
30/05:18pm 11.0 1.1 4.9 66 2.8 W 46 65 25 35 1010.4 1010.5 6.2
30/05:00pm 10.9 1.5 5.4 69 2.5 W 44 59 24 32 1010.1 1010.2 6.2
30/04:38pm 11.3 3.9 6.8 74 2.1 WSW 35 59 19 32 1009.7 1009.8 6.2
30/04:30pm 10.8 3.4 6.7 76 1.9 WSW 35 46 19 25 1009.6 1009.7 6.2
30/04:01pm 10.1 0.5 6.3 77 1.8 WSW 46 65 25 35 1009.1 1009.2 6.2
30/04:00pm 10.2 0.3 6.4 77 1.8 WSW 48 65 26 35 1009.1 1009.2 6.2
30/03:50pm 10.4 -1.4 5.0 69 2.5 WSW 56 74 30 40 1009.0 1009.1 6.2
30/03:47pm 10.6 -3.0 4.5 66 2.7 WSW 65 74 35 40 1008.9 1009.0 6.2
30/03:45pm 11.2 1.9 5.1 66 2.8 W 43 74 23 40 1008.9 1009.0 6.2
30/03:30pm 11.4 0.9 5.7 68 2.7 W 50 65 27 35 1008.3 1008.4 6.2
30/03:00pm 12.8 2.9 6.4 65 3.1 W 48 69 26 37 1007.6 1007.6 6.2
30/02:30pm 11.7 3.1 8.0 78 1.8 W 43 63 23 34 1007.0 1007.0 6.2
30/02:24pm 11.8 4.1 8.5 80 1.6 W 39 63 21 34 1007.3 1007.3 6.2
30/02:00pm 10.3 3.3 8.6 89 0.8 W 35 50 19 27 1007.1 1007.1 6.2
30/01:59pm 10.2 3.6 8.5 89 0.8 W 33 48 18 26 1007.0 1007.0 6.2
30/01:30pm 10.2 -0.2 9.4 95 0.4 WSW 54 74 29 40 1007.0 1007.0 6.0
30/01:17pm 10.0 0.2 8.8 92 0.6 W 50 89 27 48 1006.7 1006.7 5.4
30/01:12pm 10.8 2.6 9.7 93 0.6 W 43 65 23 35 1006.1 1006.1 5.0
30/01:11pm 10.8 2.6 9.7 93 0.6 W 43 54 23 29 1006.1 1006.1 5.0
30/01:00pm 10.4 -2.3 8.5 88 0.9 W 65 91 35 49 1005.4 1005.4 4.4
30/12:56pm 10.8 -3.2 8.6 86 1.1 W 72 91 39 49 1005.6 1005.6 3.8
30/12:55pm 11.4 3.8 9.0 85 1.2 WNW 39 91 21 49 1005.3 1005.3 3.6
30/12:38pm 13.1 5.2 11.3 89 1.0 W 44 63 24 34 1004.3 1004.3 2.2
30/12:30pm 12.9 4.1 11.0 88 1.0 W 48 63 26 34 1004.3 1004.3 2.2
30/12:27pm 13.5 5.3 11.7 89 1.0 W 46 52 25 28 1004.2 1004.2 2.2
30/12:00pm 13.3 7.8 12.0 92 0.7 WNW 32 50 17 27 1004.1 1004.1 2.0
30/11:30am 14.5 7.6 11.6 83 1.6 NW 39 57 21 31 1004.0 1004.0 0.0
30/11:02am 15.4 6.8 10.4 72 2.6 NW 46 65 25 35 1004.1 1004.1 0.0
30/11:00am 15.9 7.8 10.7 71 2.8 NW 44 59 24 32 1004.2 1004.2 0.0
30/10:30am 17.1 8.6 10.5 65 3.5 NW 46 67 25 36 1004.2 1004.2 0.0
30/10:17am 16.5 7.9 10.4 67 3.2 NW 46 65 25 35 1004.5 1004.5 0.0
30/10:00am 16.2 8.2 10.5 69 3.0 NW 43 57 23 31 1004.7 1004.7 0.0
30/09:30am 16.3 8.4 10.8 70 2.9 NNW 43 57 23 31 1005.2 1005.2 0.0
30/09:00am 16.2 9.6 11.4 73 2.6 NNW 37 50 20 27 1005.6 1005.6 0.0
30/08:30am 14.4 8.5 11.0 80 1.8 NNW 33 46 18 25 1005.8 1005.8 0.0
30/08:00am 13.7 8.0 11.0 84 1.4 N 32 44 17 24 1006.1 1006.1 0.0
30/07:30am 12.5 7.4 10.6 88 1.0 N 28 37 15 20 1006.4 1006.4 0.0
30/07:00am 11.8 7.4 10.5 92 0.7 N 24 33 13 18 1006.8 1006.8 0.0
30/06:30am 11.5 5.9 10.2 92 0.7 N 30 39 16 21 1006.8 1006.8 0.0
30/06:00am 11.5 6.3 10.2 92 0.7 N 28 35 15 19 1007.0 1007.0 0.0
30/05:30am 11.4 7.0 10.3 93 0.6 N 24 35 13 19 1007.2 1007.2 0.0
30/05:00am 10.7 5.7 9.6 93 0.6 N 26 32 14 17 1007.3 1007.3 0.0
30/04:30am 10.1 5.8 9.2 94 0.4 N 22 28 12 15 1007.5 1007.5 0.0
30/04:00am 10.3 6.0 9.4 94 0.5 N 22 28 12 15 1008.1 1008.2 0.0
30/03:30am 9.8 6.0 9.2 96 0.3 N 19 24 10 13 1008.5 1008.6 0.0
30/03:00am 8.9 4.3 8.1 95 0.4 N 22 26 12 14 1008.4 1008.5 0.0
30/02:30am 9.0 4.4 8.1 94 0.4 N 22 28 12 15 1008.7 1008.8 0.0
30/02:00am 8.9 4.6 8.0 94 0.4 N 20 28 11 15 1009.4 1009.5 0.0
30/01:30am 9.0 4.7 7.9 93 0.5 N 20 24 11 13 1009.7 1009.8 0.0
30/01:00am 9.3 5.3 8.2 93 0.5 N 19 24 10 13 1010.0 1010.1 0.0
30/12:30am 8.7 5.2 7.3 91 0.7 N 15 20 8 11 1010.3 1010.4 0.0
30/12:00am 9.8 6.5 8.1 89 0.8 N 15 17 8 9 1010.6 1010.7 0.0
 
Date/Time
EST
Temp
°C
App
Temp
°C
Dew
Point
Rel
Hum
%
Delta-T
°C
Wind Press
QNH
hPa
Press
MSL
hPa
Rain
since 9 am
mm
Dir
 
Spd
km/h
Gust
km/h
Spd
kts
Gust
kts
29/11:30pm 10.3 7.9 8.6 89 0.8 N 11 15 6 8 1011.0 1011.1 0.0
29/11:00pm 8.7 5.8 6.7 87 0.9 NW 11 13 6 7 1011.2 1011.3 0.0
29/10:30pm 9.2 6.0 6.8 85 1.1 NW 13 15 7 8 1011.4 1011.5 0.0
29/10:00pm 10.5 7.3 8.6 88 0.9 NW 15 19 8 10 1011.5 1011.6 0.0
29/09:30pm 9.8 6.2 8.4 91 0.7 NW 17 20 9 11 1011.6 1011.7 0.0
29/09:00pm 9.8 7.9 8.9 94 0.4 WNW 9 11 5 6 1011.8 1011.9 0.0
29/08:30pm 9.6 8.0 8.7 94 0.4 NNW 7 7 4 4 1011.7 1011.8 0.0
29/08:00pm 10.1 8.7 8.7 91 0.7 NNW 6 7 3 4 1011.5 1011.6 0.0
29/07:30pm 10.7 10.5 9.0 89 0.8 CALM 0 0 0 0 1011.1 1011.2 0.0
29/07:00pm 11.2 10.3 9.1 87 1.1 N 4 9 2 5 1010.7 1010.8 0.0
29/06:30pm 13.0 13.2 10.7 86 1.2 CALM 0 6 0 3 1010.6 1010.7 0.0
29/06:00pm 13.8 11.6 10.8 82 1.6 S 13 17 7 9 1010.4 1010.5 0.0
29/05:30pm 15.3 13.8 10.5 73 2.5 SSW 9 15 5 8 1010.1 1010.2 0.0
29/05:00pm 18.9 15.4 10.2 57 4.7 NW 19 28 10 15 1010.0 1010.1 0.0

Other Formats:

Comma delimited format used in spreadsheet applications
http://www.bom.gov.au/fwo/IDV60801/IDV60801.94837.axf

JavaScript Object Notation format (JSON) in row-major order
http://www.bom.gov.au/fwo/IDV60801/IDV60801.94837.json